createdAt,value
2019-04-21T00:02:07.385Z,4.00
2019-04-21T00:04:53.240Z,4.07
2019-04-21T00:07:27.755Z,3.50
2019-04-21T00:09:58.387Z,3.60
2019-04-21T00:12:22.032Z,3.40
2019-04-21T00:14:51.337Z,3.77
2019-04-21T00:17:13.191Z,3.90
2019-04-21T00:19:44.621Z,3.20
2019-04-21T00:22:29.350Z,3.37
2019-04-21T00:25:04.375Z,4.20
2019-04-21T00:27:28.543Z,3.50
2019-04-21T00:30:08.726Z,3.13
2019-04-21T00:32:29.226Z,5.07
2019-04-21T00:34:52.293Z,5.43
2019-04-21T00:37:26.853Z,6.47
2019-04-21T00:40:09.421Z,6.73
2019-04-21T00:42:34.410Z,6.70
2019-04-21T00:45:01.779Z,6.50
2019-04-21T00:47:53.323Z,6.27
2019-04-21T00:50:12.797Z,6.57
2019-04-21T00:53:00.765Z,6.77
2019-04-21T00:55:29.668Z,6.63
2019-04-21T01:00:22.120Z,6.13
2019-04-21T01:05:21.443Z,5.47
2019-04-21T01:07:47.936Z,6.17
2019-04-21T01:10:16.245Z,6.10
2019-04-21T01:13:04.342Z,6.27
2019-04-21T01:17:51.603Z,5.47
2019-04-21T01:20:12.956Z,5.93
2019-04-21T01:22:31.471Z,6.07
2019-04-21T01:25:09.065Z,6.20
2019-04-21T01:27:49.541Z,5.53
2019-04-21T01:30:24.311Z,5.83
2019-04-21T01:32:53.358Z,5.70
2019-04-21T01:35:21.164Z,6.43
2019-04-21T01:40:29.719Z,5.80
2019-04-21T01:42:56.719Z,6.23
2019-04-21T01:45:22.429Z,5.63
2019-04-21T01:47:54.981Z,5.60
2019-04-21T01:50:27.192Z,5.50
2019-04-21T01:53:02.021Z,5.07
2019-04-21T01:55:35.641Z,5.00
2019-04-21T01:58:02.256Z,5.67
2019-04-21T02:00:39.615Z,5.70
2019-04-21T02:03:31.505Z,5.50
2019-04-21T02:05:45.406Z,5.03
2019-04-21T02:08:13.463Z,5.70
2019-04-21T02:10:49.719Z,5.20
2019-04-21T02:13:12.116Z,5.40
2019-04-21T02:15:52.825Z,5.67
2019-04-21T02:18:11.984Z,5.53
2019-04-21T02:20:32.678Z,5.47
2019-04-21T02:25:44.182Z,5.10
2019-04-21T02:28:23.467Z,5.03
2019-04-21T02:33:39.151Z,5.30
2019-04-21T02:36:08.895Z,5.30
2019-04-21T02:38:33.825Z,5.13
2019-04-21T02:40:51.441Z,5.57
2019-04-21T02:43:50.030Z,5.30
2019-04-21T02:46:04.393Z,5.00
2019-04-21T02:48:37.074Z,5.53
2019-04-21T02:50:52.825Z,5.33
2019-04-21T02:56:03.490Z,5.60
2019-04-21T02:58:39.911Z,5.67
2019-04-21T03:01:24.585Z,4.83
2019-04-21T03:06:39.846Z,5.27
2019-04-21T03:09:12.898Z,5.53
2019-04-21T03:11:44.857Z,5.27
2019-04-21T03:16:32.961Z,4.80
2019-04-21T03:19:15.981Z,5.13
2019-04-21T03:21:38.357Z,4.90
2019-04-21T03:24:05.513Z,5.27
2019-04-21T03:26:54.385Z,5.37
2019-04-21T03:29:12.150Z,5.20
2019-04-21T03:32:14.340Z,5.67
2019-04-21T03:36:56.884Z,5.20
2019-04-21T03:39:09.542Z,4.83
2019-04-21T03:41:52.586Z,5.53
2019-04-21T03:44:14.570Z,5.30
2019-04-21T03:49:22.697Z,4.60
2019-04-21T03:51:48.714Z,4.90
2019-04-21T03:54:26.391Z,4.70
2019-04-21T03:56:59.103Z,4.47
2019-04-21T03:59:11.546Z,4.07
2019-04-21T04:04:35.517Z,4.47
2019-04-21T04:07:18.590Z,4.23
2019-04-21T04:09:44.696Z,4.97
2019-04-21T04:12:12.514Z,4.40
2019-04-21T04:22:15.330Z,5.97
2019-04-21T04:27:22.470Z,5.00
2019-04-21T04:29:39.805Z,5.27
2019-04-21T04:32:14.655Z,4.83
2019-04-21T04:39:50.150Z,4.50
2019-04-21T04:47:20.634Z,4.77
2019-04-21T04:52:31.720Z,4.50
2019-04-21T04:57:27.458Z,4.40
2019-04-21T04:59:47.524Z,4.93
2019-04-21T05:04:57.727Z,5.20
2019-04-21T05:07:29.846Z,4.73
2019-04-21T05:10:05.806Z,5.03
2019-04-21T05:12:15.883Z,4.80
2019-04-21T05:14:51.702Z,4.67
2019-04-21T05:20:03.922Z,4.97
2019-04-21T05:24:41.941Z,4.80
2019-04-21T05:27:08.708Z,4.50
2019-04-21T05:29:55.728Z,4.57
2019-04-21T05:32:17.165Z,4.63
2019-04-21T05:34:58.027Z,4.80
2019-04-21T05:37:33.221Z,4.50
2019-04-21T05:39:57.463Z,4.33
2019-04-21T05:42:27.510Z,4.60
2019-04-21T05:45:17.443Z,4.60
2019-04-21T05:47:55.791Z,4.90
2019-04-21T05:50:06.246Z,4.80
2019-04-21T05:52:35.376Z,5.13
2019-04-21T05:55:09.271Z,5.27
2019-04-21T05:57:38.104Z,4.90
2019-04-21T06:00:12.441Z,4.80
2019-04-21T06:02:43.770Z,4.70
2019-04-21T06:05:20.615Z,4.97
2019-04-21T06:07:39.478Z,4.90
2019-04-21T06:10:12.659Z,4.87
2019-04-21T06:12:50.376Z,4.57
2019-04-21T06:15:14.163Z,4.03
2019-04-21T06:17:48.841Z,4.80
2019-04-21T06:20:17.169Z,5.23
2019-04-21T06:22:49.071Z,4.90
2019-04-21T06:27:45.900Z,4.53
2019-04-21T06:30:15.247Z,4.90
2019-04-21T06:35:45.499Z,4.80
2019-04-21T06:38:09.587Z,5.07
2019-04-21T06:40:38.893Z,4.87
2019-04-21T06:43:14.214Z,5.00
2019-04-21T06:45:45.841Z,5.03
2019-04-21T06:48:04.482Z,5.50
2019-04-21T06:50:39.895Z,4.97
2019-04-21T06:53:07.138Z,5.40
2019-04-21T06:55:32.392Z,5.20
2019-04-21T06:58:07.884Z,4.73
2019-04-21T07:00:35.895Z,5.00
2019-04-21T07:03:14.191Z,4.43
2019-04-21T07:05:44.076Z,5.00
2019-04-21T07:08:24.579Z,5.10
2019-04-21T07:10:37.260Z,4.93
2019-04-21T07:13:03.925Z,5.00
2019-04-21T07:15:39.967Z,4.80
2019-04-21T07:18:16.941Z,4.63
2019-04-21T07:20:36.757Z,4.83
2019-04-21T07:23:10.503Z,4.20
2019-04-21T07:25:41.158Z,4.30
2019-04-21T07:28:10.834Z,4.60
2019-04-21T07:30:59.411Z,5.17
2019-04-21T07:33:37.402Z,4.60
2019-04-21T07:35:41.101Z,4.80
2019-04-21T07:38:15.017Z,4.30
2019-04-21T07:40:36.404Z,4.33
2019-04-21T07:43:05.657Z,4.90
2019-04-21T07:45:36.487Z,5.23
2019-04-21T07:48:12.444Z,4.83
2019-04-21T07:50:47.421Z,5.00
2019-04-21T07:53:38.537Z,4.73
2019-04-21T07:55:42.954Z,4.30
2019-04-21T07:58:26.671Z,4.80
2019-04-21T08:01:04.437Z,4.70
2019-04-21T08:03:33.668Z,4.70
2019-04-21T08:06:02.349Z,4.43
2019-04-21T08:08:33.766Z,4.50
2019-04-21T08:11:01.603Z,5.43
2019-04-21T08:13:48.660Z,4.67
2019-04-21T08:16:07.377Z,4.50
2019-04-21T08:18:35.367Z,4.47
2019-04-21T08:21:02.734Z,4.60
2019-04-21T08:23:31.498Z,4.40
2019-04-21T08:26:04.657Z,4.10
2019-04-21T08:31:07.968Z,4.67
2019-04-21T08:33:41.459Z,4.70
2019-04-21T08:36:17.783Z,4.23
2019-04-21T08:38:35.860Z,4.63
2019-04-21T08:41:11.066Z,4.60
2019-04-21T08:43:42.529Z,4.37
2019-04-21T08:46:06.826Z,4.37
2019-04-21T08:48:37.548Z,3.70
2019-04-21T08:51:22.481Z,4.20
2019-04-21T08:53:41.158Z,4.50
2019-04-21T08:56:10.532Z,4.23
2019-04-21T08:59:08.694Z,3.30
2019-04-21T09:03:58.776Z,4.10
2019-04-21T09:06:50.052Z,3.67
2019-04-21T09:09:08.182Z,3.53
2019-04-21T09:11:30.716Z,3.80
2019-04-21T09:14:05.213Z,3.47
2019-04-21T09:16:33.837Z,3.80
2019-04-21T09:18:56.918Z,3.30
2019-04-21T09:21:37.426Z,3.53
2019-04-21T09:24:09.873Z,3.40
2019-04-21T09:26:29.554Z,3.37
2019-04-21T09:28:57.327Z,3.23
2019-04-21T09:31:24.135Z,3.20
2019-04-21T09:33:50.844Z,3.07
2019-04-21T09:36:21.192Z,3.10
2019-04-21T09:38:58.708Z,3.13
2019-04-21T09:41:22.435Z,3.00
2019-04-21T09:43:52.113Z,2.30
2019-04-21T09:46:18.562Z,3.00
2019-04-21T09:48:55.642Z,2.90
2019-04-21T09:51:17.828Z,2.77
2019-04-21T09:53:54.611Z,2.50
2019-04-21T09:56:29.963Z,2.70
2019-04-21T09:58:51.419Z,2.77
2019-04-21T10:01:23.954Z,2.63
2019-04-21T10:03:53.318Z,2.80
2019-04-21T10:06:19.568Z,2.70
2019-04-21T10:08:51.557Z,2.60
2019-04-21T10:11:20.770Z,2.67
2019-04-21T10:13:48.845Z,3.17
2019-04-21T10:16:36.399Z,3.10
2019-04-21T10:19:05.247Z,3.03
2019-04-21T10:21:33.941Z,3.13
2019-04-21T10:24:02.523Z,3.00
2019-04-21T10:26:31.089Z,2.93
2019-04-21T10:29:08.554Z,3.20
2019-04-21T10:31:30.013Z,2.90
2019-04-21T10:33:58.961Z,3.20
2019-04-21T10:36:27.744Z,2.90
2019-04-21T10:38:58.997Z,3.10
2019-04-21T10:41:28.007Z,2.80
2019-04-21T10:43:56.702Z,3.03
2019-04-21T10:46:26.598Z,2.97
2019-04-21T10:48:56.796Z,3.20
2019-04-21T10:51:25.585Z,3.00
2019-04-21T10:53:55.864Z,2.80
2019-04-21T10:56:31.579Z,2.90
2019-04-21T10:58:56.170Z,3.10
2019-04-21T11:01:27.187Z,3.30
2019-04-21T11:03:58.518Z,3.07
2019-04-21T11:06:28.617Z,3.20
2019-04-21T11:08:59.578Z,2.87
2019-04-21T11:11:27.978Z,3.00
2019-04-21T11:13:56.870Z,2.90
2019-04-21T11:16:26.862Z,3.43
2019-04-21T11:18:56.011Z,3.00
2019-04-21T11:21:24.979Z,2.80
2019-04-21T11:23:54.242Z,2.70
2019-04-21T11:26:24.131Z,3.17
2019-04-21T11:28:53.054Z,3.07
2019-04-21T11:31:22.907Z,3.13
2019-04-21T11:33:51.647Z,3.30
2019-04-21T11:36:21.618Z,3.07
2019-04-21T11:39:08.407Z,3.00
2019-04-21T11:41:25.641Z,3.20
2019-04-21T11:43:54.993Z,2.97
2019-04-21T11:46:24.504Z,3.10
2019-04-21T11:48:54.602Z,2.60
2019-04-21T11:51:24.796Z,2.77
2019-04-21T11:53:54.900Z,2.90
2019-04-21T11:56:24.975Z,2.80
2019-04-21T11:58:54.101Z,3.10
2019-04-21T12:01:23.474Z,3.20
2019-04-21T12:03:53.682Z,3.00
2019-04-21T12:06:28.650Z,2.90
2019-04-21T12:08:55.516Z,2.77
2019-04-21T12:11:23.580Z,2.90
2019-04-21T12:13:52.262Z,2.60
2019-04-21T12:16:21.164Z,2.77
2019-04-21T12:18:50.982Z,2.60
2019-04-21T12:21:21.150Z,2.73
2019-04-21T12:23:50.290Z,2.93
2019-04-21T12:26:20.040Z,2.70
2019-04-21T12:28:50.002Z,2.80
2019-04-21T12:31:27.631Z,2.67
2019-04-21T12:33:58.154Z,2.57
2019-04-21T12:36:27.554Z,2.83
2019-04-21T12:39:00.064Z,3.00
2019-04-21T12:41:26.736Z,2.60
2019-04-21T12:43:56.864Z,2.73
2019-04-21T12:46:25.778Z,3.10
2019-04-21T12:48:55.798Z,3.10
2019-04-21T12:51:25.868Z,3.17
2019-04-21T12:53:54.708Z,3.40
2019-04-21T12:56:23.442Z,2.90
2019-04-21T12:58:53.313Z,3.10
2019-04-21T13:01:23.083Z,2.70
2019-04-21T13:03:52.158Z,2.90
2019-04-21T13:06:21.420Z,2.73
2019-04-21T13:08:57.868Z,2.90
2019-04-21T13:11:21.396Z,2.67
2019-04-21T13:13:50.258Z,2.73
2019-04-21T13:16:19.235Z,2.70
2019-04-21T13:18:49.225Z,2.77
2019-04-21T13:21:18.150Z,2.70
2019-04-21T13:23:47.248Z,2.60
2019-04-21T13:26:27.173Z,2.60
2019-04-21T13:28:46.149Z,2.90
2019-04-21T13:31:16.057Z,2.90
2019-04-21T13:33:46.066Z,2.90
2019-04-21T13:36:15.796Z,2.93
2019-04-21T13:39:27.554Z,3.00
2019-04-21T13:41:41.857Z,3.13
2019-04-21T13:44:15.703Z,3.10
2019-04-21T13:46:46.941Z,2.53
2019-04-21T13:49:17.042Z,2.50
2019-04-21T13:51:46.205Z,2.60
2019-04-21T13:54:15.709Z,2.60
2019-04-21T13:56:44.936Z,2.60
2019-04-21T13:59:14.099Z,2.50
2019-04-21T14:01:43.681Z,2.60
2019-04-21T14:04:13.636Z,2.63
2019-04-21T14:06:42.548Z,2.90
2019-04-21T14:09:13.710Z,2.80
2019-04-21T14:11:43.489Z,3.00
2019-04-21T14:14:12.529Z,2.90
2019-04-21T14:16:42.337Z,2.53
2019-04-21T14:19:11.097Z,3.30
2019-04-21T14:21:41.185Z,2.90
2019-04-21T14:24:10.888Z,2.90
2019-04-21T14:26:40.407Z,2.47
2019-04-21T14:29:09.867Z,2.90
2019-04-21T14:31:40.207Z,2.70
2019-04-21T14:34:10.045Z,2.63
2019-04-21T14:36:39.056Z,2.60
2019-04-21T14:39:10.536Z,2.80
2019-04-21T14:41:40.338Z,2.50
2019-04-21T14:44:09.259Z,2.90
2019-04-21T14:46:39.577Z,2.90
2019-04-21T14:49:11.024Z,3.20
2019-04-21T14:51:43.115Z,2.90
2019-04-21T14:54:20.619Z,3.00
2019-04-21T14:56:49.394Z,3.13
2019-04-21T14:59:19.238Z,2.97
2019-04-21T15:01:47.906Z,3.40
2019-04-21T15:04:17.723Z,3.13
2019-04-21T15:06:47.629Z,3.17
2019-04-21T15:09:16.463Z,2.90
2019-04-21T15:11:45.025Z,2.80
2019-04-21T15:14:13.859Z,3.70
2019-04-21T15:16:42.838Z,3.20
2019-04-21T15:19:12.802Z,3.10
2019-04-21T15:21:42.507Z,3.17
2019-04-21T15:24:12.179Z,3.10
2019-04-21T15:26:42.068Z,3.10
2019-04-21T15:29:10.902Z,3.90
2019-04-21T15:31:44.214Z,3.30
2019-04-21T15:34:10.835Z,3.10
2019-04-21T15:36:40.061Z,3.40
2019-04-21T15:39:09.959Z,2.80
2019-04-21T15:41:38.803Z,3.17
2019-04-21T15:44:08.311Z,3.23
2019-04-21T15:46:37.773Z,3.10
2019-04-21T15:49:07.005Z,2.93
2019-04-21T15:51:35.878Z,3.70
2019-04-21T15:54:04.942Z,4.20
2019-04-21T15:56:38.518Z,5.80
2019-04-21T15:59:12.574Z,3.77
2019-04-21T16:01:52.510Z,3.43
2019-04-21T16:04:21.163Z,3.20
2019-04-21T16:06:49.998Z,2.73
2019-04-21T16:09:21.662Z,3.07
2019-04-21T16:11:49.765Z,3.20
2019-04-21T16:14:18.725Z,3.03
2019-04-21T16:16:47.522Z,2.83
2019-04-21T16:19:16.481Z,3.20
2019-04-21T16:21:46.540Z,3.30
2019-04-21T16:24:16.422Z,3.00
2019-04-21T16:26:46.699Z,2.90
2019-04-21T16:29:15.566Z,3.30
2019-04-21T16:31:44.144Z,2.70
2019-04-21T16:34:13.768Z,3.47
2019-04-21T16:36:43.495Z,3.73
2019-04-21T16:39:13.197Z,3.10
2019-04-21T16:41:42.564Z,2.70
2019-04-21T16:44:11.375Z,2.90
2019-04-21T16:46:41.316Z,3.10
2019-04-21T16:49:09.996Z,3.07
2019-04-21T16:51:40.158Z,3.00
2019-04-21T16:54:10.646Z,2.30
2019-04-21T16:56:47.834Z,2.77
2019-04-21T16:59:20.959Z,3.13
2019-04-21T17:01:49.579Z,2.73
2019-04-21T17:04:18.304Z,3.03
2019-04-21T17:06:47.185Z,3.07
2019-04-21T17:09:16.800Z,2.80
2019-04-21T17:11:47.002Z,2.93
2019-04-21T17:14:32.945Z,3.23
2019-04-21T17:17:08.656Z,2.70
2019-04-21T17:19:25.341Z,2.70
2019-04-21T17:21:47.907Z,2.67
2019-04-21T17:24:16.826Z,2.70
2019-04-21T17:26:46.449Z,2.43
2019-04-21T17:29:16.834Z,3.00
2019-04-21T17:31:45.773Z,3.77
2019-04-21T17:34:19.470Z,2.67
2019-04-21T17:36:45.386Z,3.20
2019-04-21T17:39:14.202Z,3.57
2019-04-21T17:42:00.463Z,3.30
2019-04-21T17:44:13.216Z,3.20
2019-04-21T17:46:48.576Z,2.97
2019-04-21T17:49:12.820Z,3.10
2019-04-21T17:51:52.487Z,3.83
2019-04-21T17:54:29.689Z,2.60
2019-04-21T17:57:11.442Z,2.80
2019-04-21T17:59:51.062Z,2.90
2019-04-21T18:02:07.922Z,2.70
2019-04-21T18:04:40.912Z,3.00
2019-04-21T18:07:26.170Z,2.87
2019-04-21T18:10:00.177Z,2.83
2019-04-21T18:12:24.974Z,3.20
2019-04-21T18:14:51.506Z,2.97
2019-04-21T18:17:10.938Z,2.77
2019-04-21T18:19:43.137Z,3.00
2019-04-21T18:22:12.805Z,2.40
2019-04-21T18:24:55.517Z,3.53
2019-04-21T18:27:17.527Z,3.90
2019-04-21T18:29:46.551Z,4.20
2019-04-21T18:32:17.561Z,4.23
2019-04-21T18:35:02.417Z,3.07
2019-04-21T18:37:41.884Z,3.67
2019-04-21T18:40:13.669Z,3.50
2019-04-21T18:43:04.478Z,3.10
2019-04-21T18:48:10.929Z,4.20
2019-04-21T18:50:46.272Z,3.83
2019-04-21T18:53:23.884Z,3.20
2019-04-21T18:55:46.722Z,3.00
2019-04-21T18:58:13.833Z,3.27
2019-04-21T19:00:44.180Z,3.27
2019-04-21T19:03:19.216Z,3.70
2019-04-21T19:05:47.918Z,3.30
2019-04-21T19:08:31.262Z,3.77
2019-04-21T19:11:10.522Z,3.50
2019-04-21T19:13:47.856Z,3.17
2019-04-21T19:19:01.411Z,2.87
2019-04-21T19:21:08.774Z,3.20
2019-04-21T19:23:47.338Z,2.67
2019-04-21T19:26:15.066Z,2.53
2019-04-21T19:28:42.253Z,2.73
2019-04-21T19:31:12.291Z,2.80
2019-04-21T19:33:33.352Z,3.20
2019-04-21T19:35:49.785Z,3.80
2019-04-21T19:38:30.185Z,3.60
2019-04-21T19:41:03.986Z,2.50
2019-04-21T19:43:42.787Z,2.80
2019-04-21T19:46:12.849Z,3.10
2019-04-21T19:48:44.698Z,3.30
2019-04-21T19:51:10.592Z,3.10
2019-04-21T19:53:37.107Z,3.37
2019-04-21T19:55:52.083Z,3.23
2019-04-21T19:58:28.884Z,4.30
2019-04-21T20:00:56.324Z,3.13
2019-04-21T20:03:21.257Z,3.43
2019-04-21T20:06:00.388Z,3.93
2019-04-21T20:08:34.504Z,3.20
2019-04-21T20:11:13.451Z,3.27
2019-04-21T20:13:52.768Z,3.40
2019-04-21T20:16:17.834Z,3.43
2019-04-21T20:18:31.730Z,3.03
2019-04-21T20:20:52.194Z,3.20
2019-04-21T20:23:27.740Z,3.90
2019-04-21T20:25:55.866Z,3.13
2019-04-21T20:28:36.933Z,2.93
2019-04-21T20:31:14.796Z,2.97
2019-04-21T20:36:16.939Z,3.20
2019-04-21T20:38:31.103Z,3.13
2019-04-21T20:41:01.842Z,3.00
2019-04-21T20:43:42.730Z,3.20
2019-04-21T20:46:08.946Z,2.80
2019-04-21T20:48:40.096Z,3.10
2019-04-21T20:51:16.097Z,2.77
2019-04-21T20:53:44.390Z,3.03
2019-04-21T20:56:08.961Z,3.27
2019-04-21T20:58:40.704Z,3.20
2019-04-21T21:01:26.300Z,2.90
2019-04-21T21:03:46.071Z,3.50
2019-04-21T21:06:16.119Z,3.13
2019-04-21T21:08:46.804Z,3.33
2019-04-21T21:11:08.018Z,3.60
2019-04-21T21:13:50.675Z,2.70
2019-04-21T21:16:29.133Z,3.30
2019-04-21T21:21:15.618Z,3.47
2019-04-21T21:23:42.962Z,2.90
2019-04-21T21:26:20.050Z,4.10
2019-04-21T21:28:39.018Z,3.13
2019-04-21T21:31:12.991Z,2.80
2019-04-21T21:33:58.046Z,2.80
2019-04-21T21:36:33.451Z,2.73
2019-04-21T21:38:48.163Z,2.53
2019-04-21T21:41:11.960Z,2.60
2019-04-21T21:43:31.304Z,3.13
2019-04-21T21:46:04.863Z,3.00
2019-04-21T21:48:47.475Z,3.17
2019-04-21T21:51:05.931Z,3.40
2019-04-21T21:53:34.106Z,2.80
2019-04-21T21:56:02.640Z,3.33
2019-04-21T21:58:36.764Z,3.17
2019-04-21T22:01:04.880Z,3.20
2019-04-21T22:03:38.057Z,3.30
2019-04-21T22:06:08.137Z,3.03
2019-04-21T22:08:34.246Z,3.20
2019-04-21T22:11:03.327Z,3.30
2019-04-21T22:13:42.163Z,2.80
2019-04-21T22:16:06.796Z,3.17
2019-04-21T22:18:58.252Z,3.30
2019-04-21T22:21:12.822Z,3.33
2019-04-21T22:23:43.842Z,3.97
2019-04-21T22:26:05.182Z,3.50
2019-04-21T22:28:33.994Z,3.10
2019-04-21T22:31:05.559Z,3.30
2019-04-21T22:33:41.823Z,3.17
2019-04-21T22:36:18.263Z,3.47
2019-04-21T22:38:47.605Z,3.57
2019-04-21T22:41:16.093Z,3.50
2019-04-21T22:43:41.572Z,3.53
2019-04-21T22:46:05.343Z,3.30
2019-04-21T22:48:34.757Z,3.40
2019-04-21T22:51:07.326Z,3.70
2019-04-21T22:53:35.990Z,3.17
2019-04-21T22:56:13.792Z,3.67
2019-04-21T22:58:39.281Z,3.70
2019-04-21T23:01:07.726Z,3.47
2019-04-21T23:03:40.078Z,3.43
2019-04-21T23:06:14.266Z,3.70
2019-04-21T23:08:40.495Z,3.70
2019-04-21T23:11:10.938Z,3.43
2019-04-21T23:13:38.623Z,3.53
2019-04-21T23:16:08.522Z,3.40
2019-04-21T23:18:50.269Z,3.60
2019-04-21T23:21:24.927Z,3.53
2019-04-21T23:24:00.372Z,3.87
2019-04-21T23:26:26.732Z,3.20
2019-04-21T23:29:03.383Z,3.50
2019-04-21T23:31:34.417Z,3.13
2019-04-21T23:33:42.151Z,3.60
2019-04-21T23:36:16.907Z,4.10
2019-04-21T23:38:44.946Z,3.50
2019-04-21T23:41:11.471Z,3.57
2019-04-21T23:43:40.553Z,3.27
2019-04-21T23:46:19.842Z,3.33
2019-04-21T23:48:57.979Z,3.07
2019-04-21T23:51:21.424Z,3.20
2019-04-21T23:53:39.980Z,3.50
2019-04-21T23:56:08.885Z,3.83
2019-04-21T23:58:38.847Z,3.30
